Vremea acum in Borsec - Romania

Vrei sa afli care e starea vremii acum in Harghita - Romania? Dorim sa iti furnizam starea vremii pentru Harghita - Romania. Starea vremii Harghita - Romania pentru astazi.

Vremea acum in Borsec

Temperatura: 7.4 °C

Este: Senin
Se simte ca: 6.9 °C
Innorat: 5 %
Precipitatii: 0 %
Presiune atmosferica: 1018 hPa
Umiditate: 78%
Vizibilitate: 10 km
Vantul bate din W cu 4.7 km/h

Evolutia vremii in Borsec pe ore

Ora: 04:00
Senin
Temperatura: 7.5°C
Sansa de precipitatii: 0%
Ora Descriere Temp Se simte Precipitatii Umiditate Vant
00:00Senin8.9°8.4°0%75%W 5.4 KM/H
01:00Senin8.7°8.2°0%74%W 5.4 KM/H
02:00Senin8.1°7.6°0%77%W 5 KM/H
03:00Senin7.8°7.2°0%77%W 5 KM/H
04:00Senin7.5°7.1°0%77%W 4.7 KM/H
05:00Senin7.4°6.9°0%78%W 4.7 KM/H
06:00Senin7.1°6.6°0%79%W 4.7 KM/H
07:00Senin8.8°8.5°0%74%W 4.7 KM/H
08:00Senin11.4°12°0%62%WSW 3.2 KM/H
09:00Senin14.6°14.6°0%51%WSW 2.5 KM/H
10:00Senin16.9°16.9°0%41%SSW 1.8 KM/H
11:00Senin18.5°18.5°0%34%SSE 1.4 KM/H
12:00Senin19.7°19.7°0%30%ESE 1.4 KM/H
13:00Senin20.3°20.3°0%28%E 2.2 KM/H
14:00Senin20.5°20.5°0%26%E 3.6 KM/H
15:00Senin20.6°20.6°0%25%E 4.7 KM/H
16:00Senin20.4°20.4°0%26%E 5.8 KM/H
17:00Senin19.8°19.8°0%29%E 6.8 KM/H
18:00Senin18.5°18.5°0%38%E 6.1 KM/H
19:00Senin16.6°16.6°0%53%E 4.3 KM/H
20:00Patchy rain nearby13.6°14.1°100%70%ESE 4 KM/H
21:00Patchy rain nearby11.1°11.5°100%78%S 3.6 KM/H
22:00Senin10.4°10.5°0%82%SW 4.3 KM/H
23:00Senin9.9°9.5°0%84%SW 5.4 KM/H




tutorials